createdAt,value
2022-08-11T00:01:19.448Z,17.10
2022-08-11T00:03:50.115Z,17.10
2022-08-11T00:06:44.092Z,17.00
2022-08-11T00:09:18.516Z,17.20
2022-08-11T00:11:50.921Z,16.80
2022-08-11T00:14:37.426Z,16.50
2022-08-11T00:17:14.650Z,16.70
2022-08-11T00:20:13.085Z,16.60
2022-08-11T00:25:02.804Z,16.50
2022-08-11T00:27:37.700Z,16.50
2022-08-11T00:30:06.890Z,16.60
2022-08-11T00:32:35.303Z,16.60
2022-08-11T00:35:55.789Z,16.60
2022-08-11T00:37:56.115Z,16.60
2022-08-11T00:40:41.922Z,16.70
2022-08-11T00:43:20.244Z,16.40
2022-08-11T00:46:04.568Z,16.40
2022-08-11T00:48:50.322Z,16.70
2022-08-11T00:52:02.205Z,16.00
2022-08-11T00:57:37.505Z,16.50
2022-08-11T01:00:20.181Z,16.20
2022-08-11T01:02:50.044Z,16.20
2022-08-11T01:05:34.823Z,16.30
2022-08-11T01:08:28.275Z,16.50
2022-08-11T01:11:16.285Z,16.30
2022-08-11T01:16:36.781Z,16.70
2022-08-11T01:19:31.095Z,16.10
2022-08-11T01:22:12.972Z,16.80
2022-08-11T01:25:12.849Z,16.60
2022-08-11T01:27:58.213Z,16.40
2022-08-11T01:31:23.747Z,16.70
2022-08-11T01:34:14.804Z,16.50
2022-08-11T01:39:26.825Z,16.60
2022-08-11T01:42:43.789Z,16.60
2022-08-11T01:45:41.494Z,16.60
2022-08-11T01:48:26.380Z,17.00
2022-08-11T01:51:16.710Z,16.60
2022-08-11T01:53:57.319Z,17.10
2022-08-11T01:56:59.221Z,17.20
2022-08-11T01:59:33.463Z,16.90
2022-08-11T02:02:42.432Z,17.10
2022-08-11T02:05:36.671Z,16.50
2022-08-11T02:13:33.412Z,16.40
2022-08-11T02:16:17.248Z,16.60
2022-08-11T02:19:13.831Z,16.60
2022-08-11T02:22:19.388Z,16.80
2022-08-11T02:25:08.294Z,16.40
2022-08-11T02:27:37.846Z,16.60
2022-08-11T02:30:15.166Z,16.40
2022-08-11T02:33:11.537Z,16.00
2022-08-11T02:35:52.010Z,16.40
2022-08-11T02:38:33.549Z,16.10
2022-08-11T02:41:59.835Z,15.70
2022-08-11T02:45:05.496Z,16.00
2022-08-11T02:48:28.630Z,16.30
2022-08-11T02:53:39.462Z,16.00
2022-08-11T02:56:14.475Z,16.00
2022-08-11T02:59:09.578Z,16.10
2022-08-11T03:01:45.733Z,15.90
2022-08-11T03:04:21.338Z,15.90
2022-08-11T03:07:28.592Z,16.00
2022-08-11T03:10:23.457Z,16.00
2022-08-11T03:13:20.037Z,15.90
2022-08-11T03:16:47.822Z,15.60
2022-08-11T03:19:31.115Z,15.80
2022-08-11T03:22:08.828Z,15.60
2022-08-11T03:25:15.767Z,16.00
2022-08-11T03:28:04.535Z,15.90
2022-08-11T03:31:25.840Z,15.70
2022-08-11T03:34:07.642Z,15.60
2022-08-11T03:37:16.059Z,15.50
2022-08-11T03:39:56.611Z,15.50
2022-08-11T03:42:36.057Z,15.40
2022-08-11T03:45:15.816Z,15.50
2022-08-11T03:48:04.869Z,15.40
2022-08-11T03:53:37.072Z,15.40
2022-08-11T03:58:46.141Z,15.80
2022-08-11T04:06:24.046Z,15.40
2022-08-11T04:09:12.150Z,15.40
2022-08-11T04:12:08.876Z,15.40
2022-08-11T04:15:26.145Z,15.00
2022-08-11T04:18:16.053Z,14.90
2022-08-11T04:21:20.379Z,15.10
2022-08-11T04:26:44.174Z,14.90
2022-08-11T04:35:09.976Z,14.90
2022-08-11T04:40:37.287Z,15.30
2022-08-11T04:43:34.592Z,15.30
2022-08-11T04:49:07.043Z,15.10
2022-08-11T04:52:17.358Z,15.60
2022-08-11T04:55:37.716Z,15.40
2022-08-11T04:58:57.353Z,15.50
2022-08-11T05:01:43.533Z,15.40
2022-08-11T05:07:27.653Z,15.70
2022-08-11T05:10:25.562Z,15.80
2022-08-11T05:12:57.309Z,15.90
2022-08-11T05:16:00.866Z,16.10
2022-08-11T05:18:48.900Z,16.10
2022-08-11T05:21:44.778Z,16.20
2022-08-11T05:24:40.738Z,16.40
2022-08-11T05:27:28.614Z,16.50
2022-08-11T05:30:23.076Z,16.50
2022-08-11T05:33:40.460Z,16.60
2022-08-11T05:36:24.684Z,16.80
2022-08-11T05:39:33.964Z,16.90
2022-08-11T05:42:39.374Z,17.10
2022-08-11T05:45:58.146Z,16.90
2022-08-11T05:51:30.528Z,17.80
2022-08-11T05:54:27.912Z,17.70
2022-08-11T05:57:00.927Z,17.90
2022-08-11T05:59:28.831Z,18.00
2022-08-11T06:02:02.827Z,18.10
2022-08-11T06:07:09.405Z,18.20
2022-08-11T06:09:48.600Z,18.40
2022-08-11T06:12:20.238Z,18.70
2022-08-11T06:14:49.465Z,18.60
2022-08-11T06:17:39.097Z,18.70
2022-08-11T06:20:12.389Z,19.00
2022-08-11T06:22:48.531Z,18.90
2022-08-11T06:27:46.244Z,19.10
2022-08-11T06:30:14.074Z,19.00
2022-08-11T06:32:46.106Z,19.20
2022-08-11T06:35:23.645Z,19.80
2022-08-11T06:37:58.980Z,19.80
2022-08-11T06:41:11.377Z,19.90
2022-08-11T06:43:55.748Z,19.90
2022-08-11T06:46:37.259Z,20.60
2022-08-11T06:49:36.738Z,20.20
2022-08-11T06:52:06.912Z,20.30
2022-08-11T06:54:57.163Z,20.50
2022-08-11T07:00:28.164Z,20.50
2022-08-11T07:03:12.369Z,20.00
2022-08-11T07:05:51.919Z,19.50
2022-08-11T07:14:12.989Z,19.90
2022-08-11T07:16:43.650Z,19.90
2022-08-11T07:19:31.441Z,20.20
2022-08-11T07:22:21.720Z,20.40
2022-08-11T07:25:11.282Z,20.70
2022-08-11T07:28:03.172Z,20.90
2022-08-11T07:30:31.857Z,21.30
2022-08-11T07:33:02.815Z,21.30
2022-08-11T07:35:59.203Z,21.50
2022-08-11T07:38:47.338Z,21.90
2022-08-11T07:41:16.791Z,22.00
2022-08-11T07:43:49.156Z,22.20
2022-08-11T07:46:36.585Z,22.30
2022-08-11T07:49:23.021Z,22.30
2022-08-11T07:52:09.528Z,22.40
2022-08-11T07:54:38.183Z,22.50
2022-08-11T07:57:46.107Z,22.80
2022-08-11T08:00:33.446Z,22.50
2022-08-11T08:03:19.726Z,22.80
2022-08-11T08:06:06.677Z,22.90
2022-08-11T08:14:42.462Z,23.30
2022-08-11T08:17:28.777Z,23.40
2022-08-11T08:25:07.572Z,23.40
2022-08-11T08:27:39.279Z,23.60
2022-08-11T08:30:25.539Z,23.40
2022-08-11T08:32:53.657Z,23.80
2022-08-11T08:37:51.331Z,24.20
2022-08-11T08:43:10.219Z,24.30
2022-08-11T08:45:39.709Z,24.40
2022-08-11T08:48:14.731Z,24.20
2022-08-11T08:51:09.077Z,24.50
2022-08-11T08:53:52.359Z,24.60
2022-08-11T08:56:28.377Z,24.60
2022-08-11T08:58:58.609Z,24.70
2022-08-11T09:01:27.363Z,24.70
2022-08-11T09:06:40.253Z,25.00
2022-08-11T09:09:09.004Z,24.70
2022-08-11T09:11:55.518Z,24.70
2022-08-11T09:15:19.276Z,24.60
2022-08-11T09:17:49.374Z,24.90
2022-08-11T09:20:25.595Z,24.90
2022-08-11T09:28:59.029Z,25.20
2022-08-11T09:33:55.479Z,25.40
2022-08-11T09:42:01.460Z,25.50
2022-08-11T09:44:48.596Z,25.60
2022-08-11T09:47:28.704Z,25.70
2022-08-11T09:50:00.678Z,25.80
2022-08-11T09:52:35.793Z,25.90
2022-08-11T09:55:06.827Z,25.90
2022-08-11T10:02:50.112Z,26.20
2022-08-11T10:05:39.366Z,26.20
2022-08-11T10:08:08.954Z,26.30
2022-08-11T10:10:40.175Z,26.20
2022-08-11T10:14:31.785Z,26.30
2022-08-11T10:16:15.625Z,26.40
2022-08-11T10:18:52.221Z,26.40
2022-08-11T10:22:11.189Z,26.40
2022-08-11T10:30:30.440Z,26.50
2022-08-11T10:33:19.007Z,26.60
2022-08-11T10:36:16.896Z,26.70
2022-08-11T10:38:46.835Z,26.60
2022-08-11T10:41:33.101Z,26.60
2022-08-11T10:54:52.463Z,26.90
2022-08-11T11:00:15.362Z,27.10
2022-08-11T11:02:44.265Z,27.20
2022-08-11T11:08:29.267Z,27.30
2022-08-11T11:13:53.266Z,27.40
2022-08-11T11:16:44.706Z,27.50
2022-08-11T11:19:19.700Z,27.60
2022-08-11T11:21:50.969Z,27.60
2022-08-11T11:29:40.479Z,27.80
2022-08-11T11:34:53.097Z,27.70
2022-08-11T11:37:23.197Z,27.80
2022-08-11T11:42:18.877Z,28.00
2022-08-11T11:44:47.013Z,28.00
2022-08-11T11:49:44.930Z,28.50
2022-08-11T11:52:21.115Z,28.50
2022-08-11T11:54:50.584Z,28.20
2022-08-11T11:57:38.500Z,28.20
2022-08-11T12:00:33.814Z,28.30
2022-08-11T12:03:05.170Z,28.20
2022-08-11T12:05:34.614Z,28.20
2022-08-11T12:08:18.701Z,28.20
2022-08-11T12:11:11.780Z,28.20
2022-08-11T12:13:40.960Z,28.20
2022-08-11T12:16:33.684Z,28.30
2022-08-11T12:19:01.922Z,28.60
2022-08-11T12:21:30.373Z,28.30
2022-08-11T12:24:18.769Z,28.50
2022-08-11T12:27:14.972Z,28.40
2022-08-11T12:34:38.548Z,28.30
2022-08-11T12:37:12.989Z,28.40
2022-08-11T12:40:16.867Z,28.70
2022-08-11T12:43:21.697Z,28.50
2022-08-11T12:45:54.116Z,28.70
2022-08-11T12:48:58.487Z,28.80
2022-08-11T12:52:10.919Z,28.70
2022-08-11T12:54:58.949Z,29.00
2022-08-11T12:57:55.375Z,28.90
2022-08-11T13:00:42.254Z,28.90
2022-08-11T13:03:29.623Z,28.80
2022-08-11T13:05:59.634Z,28.80
2022-08-11T13:08:29.378Z,28.70
2022-08-11T13:11:17.184Z,28.60
2022-08-11T13:13:53.586Z,28.60
2022-08-11T13:16:26.645Z,28.50
2022-08-11T13:21:22.035Z,28.60
2022-08-11T13:24:01.265Z,28.80
2022-08-11T13:26:47.395Z,28.90
2022-08-11T13:29:25.515Z,29.00
2022-08-11T13:31:56.053Z,28.90
2022-08-11T13:34:26.822Z,28.80
2022-08-11T13:36:56.859Z,28.80
2022-08-11T13:39:26.908Z,28.80
2022-08-11T13:41:56.742Z,28.80
2022-08-11T13:44:27.373Z,28.90
2022-08-11T13:46:58.303Z,28.90
2022-08-11T13:51:55.097Z,29.00
2022-08-11T13:54:26.037Z,29.10
2022-08-11T13:56:56.400Z,29.10
2022-08-11T14:02:28.799Z,29.00
2022-08-11T14:04:58.476Z,28.60
2022-08-11T14:07:39.145Z,28.90
2022-08-11T14:10:08.443Z,29.00
2022-08-11T14:12:55.813Z,29.00
2022-08-11T14:15:26.920Z,29.00
2022-08-11T14:18:09.362Z,28.80
2022-08-11T14:20:58.771Z,29.00
2022-08-11T14:23:29.594Z,29.10
2022-08-11T14:31:16.620Z,29.10
2022-08-11T14:33:59.641Z,29.10
2022-08-11T14:36:38.162Z,29.10
2022-08-11T14:39:18.205Z,29.20
2022-08-11T14:42:15.628Z,29.30
2022-08-11T14:45:04.999Z,29.10
2022-08-11T14:47:37.072Z,29.20
2022-08-11T14:50:11.567Z,29.10
2022-08-11T14:52:44.926Z,29.20
2022-08-11T14:55:32.227Z,29.10
2022-08-11T14:58:00.675Z,29.10
2022-08-11T15:05:53.719Z,29.40
2022-08-11T15:08:49.207Z,29.00
2022-08-11T15:11:53.649Z,29.00
2022-08-11T15:17:09.628Z,28.90
2022-08-11T15:20:00.324Z,28.90
2022-08-11T15:22:46.396Z,28.90
2022-08-11T15:28:01.334Z,28.80
2022-08-11T15:33:35.561Z,28.70
2022-08-11T15:36:25.342Z,28.70
2022-08-11T15:39:19.399Z,29.00
2022-08-11T15:42:15.906Z,28.50
2022-08-11T15:45:05.415Z,28.50
2022-08-11T15:47:57.642Z,28.40
2022-08-11T15:50:34.530Z,28.30
2022-08-11T15:53:07.876Z,28.20
2022-08-11T15:55:37.573Z,28.00
2022-08-11T15:58:28.019Z,28.00
2022-08-11T16:01:15.585Z,28.00
2022-08-11T16:04:13.732Z,28.00
2022-08-11T16:06:47.848Z,28.00
2022-08-11T16:09:20.826Z,28.10
2022-08-11T16:11:48.800Z,28.00
2022-08-11T16:14:35.589Z,28.00
2022-08-11T16:17:05.810Z,27.90
2022-08-11T16:19:36.608Z,27.90
2022-08-11T16:22:10.207Z,28.10
2022-08-11T16:26:30.662Z,27.90
2022-08-11T16:27:35.331Z,27.90
2022-08-11T16:32:33.500Z,28.10
2022-08-11T16:35:26.452Z,28.00
2022-08-11T16:38:13.861Z,27.70
2022-08-11T16:40:42.817Z,27.60
2022-08-11T16:43:33.740Z,27.60
2022-08-11T16:46:22.119Z,27.60
2022-08-11T16:48:50.896Z,27.50
2022-08-11T16:54:04.457Z,27.40
2022-08-11T16:56:41.845Z,27.30
2022-08-11T16:59:26.429Z,27.50
2022-08-11T17:02:01.981Z,27.30
2022-08-11T17:05:02.203Z,27.40
2022-08-11T17:07:48.963Z,27.30
2022-08-11T17:10:51.869Z,27.50
2022-08-11T17:13:44.447Z,27.40
2022-08-11T17:16:13.656Z,27.00
2022-08-11T17:19:05.316Z,26.60
2022-08-11T17:21:57.727Z,26.90
2022-08-11T17:24:27.643Z,26.80
2022-08-11T17:26:57.592Z,26.70
2022-08-11T17:29:32.122Z,26.60
2022-08-11T17:32:20.187Z,26.50
2022-08-11T17:35:06.630Z,26.40
2022-08-11T17:37:36.567Z,26.30
2022-08-11T17:40:06.996Z,26.30
2022-08-11T17:42:53.933Z,26.20
2022-08-11T17:46:01.077Z,26.20
2022-08-11T17:48:31.630Z,26.10
2022-08-11T17:51:01.792Z,26.00
2022-08-11T17:54:15.232Z,25.90
2022-08-11T17:56:56.548Z,25.80
2022-08-11T18:02:36.428Z,25.70
2022-08-11T18:05:12.240Z,25.60
2022-08-11T18:08:01.764Z,25.60
2022-08-11T18:10:49.403Z,25.50
2022-08-11T18:13:41.769Z,25.20
2022-08-11T18:16:28.184Z,25.40
2022-08-11T18:19:14.119Z,25.30
2022-08-11T18:22:14.925Z,24.90
2022-08-11T18:25:32.803Z,25.40
2022-08-11T18:28:19.321Z,24.90
2022-08-11T18:31:12.881Z,24.90
2022-08-11T18:34:07.567Z,24.70
2022-08-11T18:37:21.716Z,24.70
2022-08-11T18:40:27.092Z,24.40
2022-08-11T18:43:16.344Z,24.40
2022-08-11T18:46:06.962Z,24.30
2022-08-11T18:48:57.789Z,24.20
2022-08-11T18:51:45.088Z,24.10
2022-08-11T18:54:33.622Z,24.00
2022-08-11T18:57:22.092Z,23.90
2022-08-11T19:00:10.256Z,23.80
2022-08-11T19:02:57.617Z,23.80
2022-08-11T19:06:32.565Z,23.60
2022-08-11T19:08:54.125Z,23.60
2022-08-11T19:11:42.611Z,23.50
2022-08-11T19:14:31.066Z,23.40
2022-08-11T19:17:44.854Z,23.40
2022-08-11T19:20:29.594Z,23.60
2022-08-11T19:23:16.514Z,23.10
2022-08-11T19:26:06.139Z,23.00
2022-08-11T19:28:53.097Z,22.80
2022-08-11T19:31:44.019Z,22.70
2022-08-11T19:34:38.510Z,22.60
2022-08-11T19:37:26.336Z,22.50
2022-08-11T19:40:20.731Z,22.50
2022-08-11T19:43:18.712Z,22.10
2022-08-11T19:46:15.243Z,22.00
2022-08-11T19:49:03.277Z,22.00
2022-08-11T20:11:32.542Z,21.80
2022-08-11T20:14:20.216Z,21.80
2022-08-11T20:19:57.280Z,21.80
2022-08-11T20:22:45.945Z,21.70
2022-08-11T20:25:32.754Z,21.60
2022-08-11T20:31:04.679Z,21.50
2022-08-11T20:33:51.968Z,21.50
2022-08-11T20:42:11.706Z,21.30
2022-08-11T20:44:59.407Z,21.20
2022-08-11T20:47:59.041Z,21.10
2022-08-11T20:50:46.607Z,21.10
2022-08-11T20:59:29.396Z,20.70
2022-08-11T21:02:20.069Z,20.60
2022-08-11T21:07:58.729Z,20.40
2022-08-11T21:10:51.752Z,20.00
2022-08-11T21:13:41.597Z,20.20
2022-08-11T21:20:01.342Z,20.00
2022-08-11T21:22:43.334Z,20.00
2022-08-11T21:25:47.819Z,20.00
2022-08-11T21:28:37.375Z,19.90
2022-08-11T21:31:24.976Z,19.70
2022-08-11T21:36:59.629Z,19.30
2022-08-11T21:45:18.849Z,19.00
2022-08-11T21:48:05.264Z,18.80
2022-08-11T21:53:38.119Z,18.70
2022-08-11T21:56:25.539Z,18.70
2022-08-11T22:04:48.251Z,18.50
2022-08-11T22:07:39.491Z,18.50
2022-08-11T22:13:30.137Z,18.50
2022-08-11T22:19:03.768Z,18.30
2022-08-11T22:22:02.741Z,18.20
2022-08-11T22:24:51.607Z,18.10
2022-08-11T22:30:26.061Z,18.20
2022-08-11T22:33:12.472Z,18.00
2022-08-11T22:38:47.919Z,18.00
2022-08-11T22:49:57.845Z,17.90
2022-08-11T22:55:31.094Z,17.90
2022-08-11T23:03:51.041Z,17.80
2022-08-11T23:06:38.233Z,17.80
2022-08-11T23:09:24.913Z,17.80
2022-08-11T23:14:59.070Z,17.80
2022-08-11T23:17:46.124Z,17.80
2022-08-11T23:20:34.778Z,17.80
2022-08-11T23:31:53.322Z,17.60
2022-08-11T23:35:03.455Z,17.50
2022-08-11T23:48:52.340Z,17.30
2022-08-11T23:51:41.160Z,17.30
2022-08-11T23:54:30.710Z,17.30
